Aviation Digital Data Service (ADDS)

Output produced by METARs form (0611 UTC 16 February 2019)
found at http://www.aviationweather.gov/metar/data/
 
METAR text: UHPP 160600Z 27006MPS 9999 NSC M07/M17 Q0986 R34L/CLRD70 NOSIG RMK MT OBSC QFE736/0982
Conditions at: UHPP (PETROPAVLOVSK-KA, RU) observed 0600 UTC 16 February 2019
Temperature: -7.0°C (19°F)
Dewpoint: -17.0°C ( 1°F) [RH = 45%]
Pressure (altimeter): 29.11 inches Hg (986.0 mb)
Winds: from the W (270 degrees) at 14 MPH (12 knots; 6.2 m/s)
Visibility: 6 or more miles (10+ km)
Ceiling: at least 12,000 feet AGL
Clouds: sky clear below 12,000 feet AGL
Weather: no significant weather observed at this time

METAR text: UHPP 160500Z 28005MPS 9999 NSC M07/M17 Q0986 R34L/CLRD70 NOSIG RMK MT OBSC QFE736/0981
Conditions at: UHPP (PETROPAVLOVSK-KA, RU) observed 0500 UTC 16 February 2019
Temperature: -7.0°C (19°F)
Dewpoint: -17.0°C ( 1°F) [RH = 45%]
Pressure (altimeter): 29.11 inches Hg (986.0 mb)
Winds: from the W (280 degrees) at 12 MPH (10 knots; 5.1 m/s)
Visibility: 6 or more miles (10+ km)
Ceiling: at least 12,000 feet AGL
Clouds: sky clear below 12,000 feet AGL
Weather: no significant weather observed at this time

METAR text: UHPP 160430Z 29007MPS 260V320 9999 NSC M06/M17 Q0986 R34L/CLRD70 NOSIG RMK MT OBSC QFE736/0981
Conditions at: UHPP (PETROPAVLOVSK-KA, RU) observed 0430 UTC 16 February 2019
Temperature: -6.0°C (21°F)
Dewpoint: -17.0°C ( 1°F) [RH = 41%]
Pressure (altimeter): 29.11 inches Hg (986.0 mb)
Winds: from the WNW (290 degrees) at 16 MPH (14 knots; 7.2 m/s)
Visibility: 6 or more miles (10+ km)
Ceiling: at least 12,000 feet AGL
Clouds: sky clear below 12,000 feet AGL
Weather: no significant weather observed at this time

METAR text: UHPP 160400Z 29008MPS 9999 NSC M06/M17 Q0986 R34L/CLRD70 NOSIG RMK MT OBSC QFE736/0981
Conditions at: UHPP (PETROPAVLOVSK-KA, RU) observed 0400 UTC 16 February 2019
Temperature: -6.0°C (21°F)
Dewpoint: -17.0°C ( 1°F) [RH = 41%]
Pressure (altimeter): 29.11 inches Hg (986.0 mb)
Winds: from the WNW (290 degrees) at 18 MPH (16 knots; 8.2 m/s)
Visibility: 6 or more miles (10+ km)
Ceiling: at least 12,000 feet AGL
Clouds: sky clear below 12,000 feet AGL
Weather: no significant weather observed at this time

METAR text: UHPP 160330Z 29009MPS 9999 NSC M06/M17 Q0985 R34L/CLRD70 NOSIG RMK MT OBSC QFE736/0981
Conditions at: UHPP (PETROPAVLOVSK-KA, RU) observed 0330 UTC 16 February 2019
Temperature: -6.0°C (21°F)
Dewpoint: -17.0°C ( 1°F) [RH = 41%]
Pressure (altimeter): 29.08 inches Hg (985.0 mb)
Winds: from the WNW (290 degrees) at 20 MPH (17 knots; 8.7 m/s)
Visibility: 6 or more miles (10+ km)
Ceiling: at least 12,000 feet AGL
Clouds: sky clear below 12,000 feet AGL
Weather: no significant weather observed at this time

METAR text: UHPP 160300Z 29008MPS 9999 NSC M06/M18 Q0985 R34L/CLRD70 NOSIG RMK MT OBSC QFE735/0981
Conditions at: UHPP (PETROPAVLOVSK-KA, RU) observed 0300 UTC 16 February 2019
Temperature: -6.0°C (21°F)
Dewpoint: -18.0°C (-0°F) [RH = 38%]
Pressure (altimeter): 29.08 inches Hg (985.0 mb)
Winds: from the WNW (290 degrees) at 18 MPH (16 knots; 8.2 m/s)
Visibility: 6 or more miles (10+ km)
Ceiling: at least 12,000 feet AGL
Clouds: sky clear below 12,000 feet AGL
Weather: no significant weather observed at this time

METAR text: UHPP 160230Z 28009MPS 9999 NSC M06/M18 Q0985 R34L/CLRD70 NOSIG RMK MT OBSC QFE736/0981
Conditions at: UHPP (PETROPAVLOVSK-KA, RU) observed 0230 UTC 16 February 2019
Temperature: -6.0°C (21°F)
Dewpoint: -18.0°C (-0°F) [RH = 38%]
Pressure (altimeter): 29.08 inches Hg (985.0 mb)
Winds: from the W (280 degrees) at 20 MPH (17 knots; 8.7 m/s)
Visibility: 6 or more miles (10+ km)
Ceiling: at least 12,000 feet AGL
Clouds: sky clear below 12,000 feet AGL
Weather: no significant weather observed at this time

METAR text: UHPP 160200Z 29008MPS 9999 NSC M06/M18 Q0985 R34L/CLRD70 NOSIG RMK QFE736/0981
Conditions at: UHPP (PETROPAVLOVSK-KA, RU) observed 0200 UTC 16 February 2019
Temperature: -6.0°C (21°F)
Dewpoint: -18.0°C (-0°F) [RH = 38%]
Pressure (altimeter): 29.08 inches Hg (985.0 mb)
Winds: from the WNW (290 degrees) at 18 MPH (16 knots; 8.2 m/s)
Visibility: 6 or more miles (10+ km)
Ceiling: at least 12,000 feet AGL
Clouds: sky clear below 12,000 feet AGL
Weather: no significant weather observed at this time

METAR text: UHPP 160130Z 29008MPS 9999 NSC M06/M18 Q0986 R34L/CLRD70 NOSIG RMK QFE736/0981
Conditions at: UHPP (PETROPAVLOVSK-KA, RU) observed 0130 UTC 16 February 2019
Temperature: -6.0°C (21°F)
Dewpoint: -18.0°C (-0°F) [RH = 38%]
Pressure (altimeter): 29.11 inches Hg (986.0 mb)
Winds: from the WNW (290 degrees) at 18 MPH (16 knots; 8.2 m/s)
Visibility: 6 or more miles (10+ km)
Ceiling: at least 12,000 feet AGL
Clouds: sky clear below 12,000 feet AGL
Weather: no significant weather observed at this time

METAR text: UHPP 160100Z 29008MPS 9999 NSC M06/M18 Q0986 R34L/CLRD70 NOSIG RMK QFE736/0981
Conditions at: UHPP (PETROPAVLOVSK-KA, RU) observed 0100 UTC 16 February 2019
Temperature: -6.0°C (21°F)
Dewpoint: -18.0°C (-0°F) [RH = 38%]
Pressure (altimeter): 29.11 inches Hg (986.0 mb)
Winds: from the WNW (290 degrees) at 18 MPH (16 knots; 8.2 m/s)
Visibility: 6 or more miles (10+ km)
Ceiling: at least 12,000 feet AGL
Clouds: sky clear below 12,000 feet AGL
Weather: no significant weather observed at this time

METAR text: UHPP 160030Z 29008G13MPS 9999 NSC M07/M18 Q0986 R34L/CLRD70 NOSIG RMK QFE736/0981
Conditions at: UHPP (PETROPAVLOVSK-KA, RU) observed 0030 UTC 16 February 2019
Temperature: -7.0°C (19°F)
Dewpoint: -18.0°C (-0°F) [RH = 41%]
Pressure (altimeter): 29.11 inches Hg (986.0 mb)
Winds: from the WNW (290 degrees) at 18 MPH (16 knots; 8.2 m/s)
gusting to 29 MPH (25 knots; 12.9 m/s)
Visibility: 6 or more miles (10+ km)
Ceiling: at least 12,000 feet AGL
Clouds: sky clear below 12,000 feet AGL
Weather: no significant weather observed at this time

METAR text: UHPP 160000Z 30007MPS 9999 NSC M07/M18 Q0986 R34L/CLRD70 NOSIG RMK QFE736/0981
Conditions at: UHPP (PETROPAVLOVSK-KA, RU) observed 0000 UTC 16 February 2019
Temperature: -7.0°C (19°F)
Dewpoint: -18.0°C (-0°F) [RH = 41%]
Pressure (altimeter): 29.11 inches Hg (986.0 mb)
Winds: from the WNW (300 degrees) at 16 MPH (14 knots; 7.2 m/s)
Visibility: 6 or more miles (10+ km)
Ceiling: at least 12,000 feet AGL
Clouds: sky clear below 12,000 feet AGL
Weather: no significant weather observed at this time

METAR text: UHPP 152330Z 31007MPS 9999 NSC M07/M19 Q0986 R34L/CLRD70 NOSIG RMK QFE736/0981
Conditions at: UHPP (PETROPAVLOVSK-KA, RU) observed 2330 UTC 15 February 2019
Temperature: -7.0°C (19°F)
Dewpoint: -19.0°C (-2°F) [RH = 38%]
Pressure (altimeter): 29.11 inches Hg (986.0 mb)
Winds: from the NW (310 degrees) at 16 MPH (14 knots; 7.2 m/s)
Visibility: 6 or more miles (10+ km)
Ceiling: at least 12,000 feet AGL
Clouds: sky clear below 12,000 feet AGL
Weather: no significant weather observed at this time

METAR text: UHPP 152300Z 32006MPS 9999 NSC M09/M17 Q0986 R34L/CLRD70 NOSIG RMK QFE736/0982
Conditions at: UHPP (PETROPAVLOVSK-KA, RU) observed 2300 UTC 15 February 2019
Temperature: -9.0°C (16°F)
Dewpoint: -17.0°C ( 1°F) [RH = 52%]
Pressure (altimeter): 29.11 inches Hg (986.0 mb)
Winds: from the NW (320 degrees) at 14 MPH (12 knots; 6.2 m/s)
Visibility: 6 or more miles (10+ km)
Ceiling: at least 12,000 feet AGL
Clouds: sky clear below 12,000 feet AGL
Weather: no significant weather observed at this time

METAR text: UHPP 152230Z 33006MPS 9999 NSC M09/M17 Q0986 R34L/CLRD70 NOSIG RMK QFE736/0982
Conditions at: UHPP (PETROPAVLOVSK-KA, RU) observed 2230 UTC 15 February 2019
Temperature: -9.0°C (16°F)
Dewpoint: -17.0°C ( 1°F) [RH = 52%]
Pressure (altimeter): 29.11 inches Hg (986.0 mb)
Winds: from the NNW (330 degrees) at 14 MPH (12 knots; 6.2 m/s)
Visibility: 6 or more miles (10+ km)
Ceiling: at least 12,000 feet AGL
Clouds: sky clear below 12,000 feet AGL
Weather: no significant weather observed at this time

METAR text: UHPP 152200Z 35006MPS 9999 NSC M09/M19 Q0986 R34L/CLRD70 NOSIG RMK QFE736/0982
Conditions at: UHPP (PETROPAVLOVSK-KA, RU) observed 2200 UTC 15 February 2019
Temperature: -9.0°C (16°F)
Dewpoint: -19.0°C (-2°F) [RH = 44%]
Pressure (altimeter): 29.11 inches Hg (986.0 mb)
Winds: from the N (350 degrees) at 14 MPH (12 knots; 6.2 m/s)
Visibility: 6 or more miles (10+ km)
Ceiling: at least 12,000 feet AGL
Clouds: sky clear below 12,000 feet AGL
Weather: no significant weather observed at this time

METAR text: UHPP 152130Z 35007MPS 9999 NSC M09/M19 Q0986 R34L/CLRD70 NOSIG RMK QFE736/0981
Conditions at: UHPP (PETROPAVLOVSK-KA, RU) observed 2130 UTC 15 February 2019
Temperature: -9.0°C (16°F)
Dewpoint: -19.0°C (-2°F) [RH = 44%]
Pressure (altimeter): 29.11 inches Hg (986.0 mb)
Winds: from the N (350 degrees) at 16 MPH (14 knots; 7.2 m/s)
Visibility: 6 or more miles (10+ km)
Ceiling: at least 12,000 feet AGL
Clouds: sky clear below 12,000 feet AGL
Weather: no significant weather observed at this time

METAR text: UHPP 152100Z 36006MPS 9999 NSC M10/M19 Q0986 R34L/CLRD70 NOSIG RMK QFE736/0981
Conditions at: UHPP (PETROPAVLOVSK-KA, RU) observed 2100 UTC 15 February 2019
Temperature: -10.0°C (14°F)
Dewpoint: -19.0°C (-2°F) [RH = 48%]
Pressure (altimeter): 29.11 inches Hg (986.0 mb)
Winds: from the N (360 degrees) at 14 MPH (12 knots; 6.2 m/s)
Visibility: 6 or more miles (10+ km)
Ceiling: at least 12,000 feet AGL
Clouds: sky clear below 12,000 feet AGL
Weather: no significant weather observed at this time

METAR text: UHPP 152030Z 35006MPS 9999 NSC M10/M19 Q0986 R34L/CLRD70 NOSIG RMK QFE736/0981
Conditions at: UHPP (PETROPAVLOVSK-KA, RU) observed 2030 UTC 15 February 2019
Temperature: -10.0°C (14°F)
Dewpoint: -19.0°C (-2°F) [RH = 48%]
Pressure (altimeter): 29.11 inches Hg (986.0 mb)
Winds: from the N (350 degrees) at 14 MPH (12 knots; 6.2 m/s)
Visibility: 6 or more miles (10+ km)
Ceiling: at least 12,000 feet AGL
Clouds: sky clear below 12,000 feet AGL
Weather: no significant weather observed at this time

METAR text: UHPP 152000Z 35006MPS 9999 NSC M10/M18 Q0986 R34L/CLRD70 NOSIG RMK QFE736/0981
Conditions at: UHPP (PETROPAVLOVSK-KA, RU) observed 2000 UTC 15 February 2019
Temperature: -10.0°C (14°F)
Dewpoint: -18.0°C (-0°F) [RH = 52%]
Pressure (altimeter): 29.11 inches Hg (986.0 mb)
Winds: from the N (350 degrees) at 14 MPH (12 knots; 6.2 m/s)
Visibility: 6 or more miles (10+ km)
Ceiling: at least 12,000 feet AGL
Clouds: sky clear below 12,000 feet AGL
Weather: no significant weather observed at this time

METAR text: UHPP 151930Z 33005MPS 9999 NSC M10/M18 Q0985 R34L/CLRD70 NOSIG RMK QFE736/0981
Conditions at: UHPP (PETROPAVLOVSK-KA, RU) observed 1930 UTC 15 February 2019
Temperature: -10.0°C (14°F)
Dewpoint: -18.0°C (-0°F) [RH = 52%]
Pressure (altimeter): 29.08 inches Hg (985.0 mb)
Winds: from the NNW (330 degrees) at 12 MPH (10 knots; 5.1 m/s)
Visibility: 6 or more miles (10+ km)
Ceiling: at least 12,000 feet AGL
Clouds: sky clear below 12,000 feet AGL
Weather: no significant weather observed at this time

METAR text: UHPP 151900Z 33006MPS 9999 NSC M10/M18 Q0985 R34L/CLRD70 NOSIG RMK QFE735/0981
Conditions at: UHPP (PETROPAVLOVSK-KA, RU) observed 1900 UTC 15 February 2019
Temperature: -10.0°C (14°F)
Dewpoint: -18.0°C (-0°F) [RH = 52%]
Pressure (altimeter): 29.08 inches Hg (985.0 mb)
Winds: from the NNW (330 degrees) at 14 MPH (12 knots; 6.2 m/s)
Visibility: 6 or more miles (10+ km)
Ceiling: at least 12,000 feet AGL
Clouds: sky clear below 12,000 feet AGL
Weather: no significant weather observed at this time

METAR text: UHPP 151800Z 33007MPS 9999 NSC M10/M18 Q0985 R34L/CLRD70 NOSIG RMK QFE735/0980
Conditions at: UHPP (PETROPAVLOVSK-KA, RU) observed 1800 UTC 15 February 2019
Temperature: -10.0°C (14°F)
Dewpoint: -18.0°C (-0°F) [RH = 52%]
Pressure (altimeter): 29.08 inches Hg (985.0 mb)
Winds: from the NNW (330 degrees) at 16 MPH (14 knots; 7.2 m/s)
Visibility: 6 or more miles (10+ km)
Ceiling: at least 12,000 feet AGL
Clouds: sky clear below 12,000 feet AGL
Weather: no significant weather observed at this time

METAR text: UHPP 151700Z 33006MPS 9999 NSC M09/M18 Q0985 R34L/CLRD70 NOSIG RMK QFE735/0980
Conditions at: UHPP (PETROPAVLOVSK-KA, RU) observed 1700 UTC 15 February 2019
Temperature: -9.0°C (16°F)
Dewpoint: -18.0°C (-0°F) [RH = 48%]
Pressure (altimeter): 29.08 inches Hg (985.0 mb)
Winds: from the NNW (330 degrees) at 14 MPH (12 knots; 6.2 m/s)
Visibility: 6 or more miles (10+ km)
Ceiling: at least 12,000 feet AGL
Clouds: sky clear below 12,000 feet AGL
Weather: no significant weather observed at this time

METAR text: UHPP 151600Z 35006MPS 9999 NSC M09/M18 Q0985 R34L/CLRD70 NOSIG RMK QFE735/0980
Conditions at: UHPP (PETROPAVLOVSK-KA, RU) observed 1600 UTC 15 February 2019
Temperature: -9.0°C (16°F)
Dewpoint: -18.0°C (-0°F) [RH = 48%]
Pressure (altimeter): 29.08 inches Hg (985.0 mb)
Winds: from the N (350 degrees) at 14 MPH (12 knots; 6.2 m/s)
Visibility: 6 or more miles (10+ km)
Ceiling: at least 12,000 feet AGL
Clouds: sky clear below 12,000 feet AGL
Weather: no significant weather observed at this time

METAR text: UHPP 151500Z 33008MPS 9999 NSC M08/M17 Q0984 R34L/CLRD70 NOSIG RMK QFE735/0980
Conditions at: UHPP (PETROPAVLOVSK-KA, RU) observed 1500 UTC 15 February 2019
Temperature: -8.0°C (18°F)
Dewpoint: -17.0°C ( 1°F) [RH = 48%]
Pressure (altimeter): 29.06 inches Hg (984.0 mb)
Winds: from the NNW (330 degrees) at 18 MPH (16 knots; 8.2 m/s)
Visibility: 6 or more miles (10+ km)
Ceiling: at least 12,000 feet AGL
Clouds: sky clear below 12,000 feet AGL
Weather: no significant weather observed at this time

METAR text: UHPP 151400Z 33007MPS 9999 NSC M08/M17 Q0984 R34L/CLRD70 NOSIG RMK QFE735/0980
Conditions at: UHPP (PETROPAVLOVSK-KA, RU) observed 1400 UTC 15 February 2019
Temperature: -8.0°C (18°F)
Dewpoint: -17.0°C ( 1°F) [RH = 48%]
Pressure (altimeter): 29.06 inches Hg (984.0 mb)
Winds: from the NNW (330 degrees) at 16 MPH (14 knots; 7.2 m/s)
Visibility: 6 or more miles (10+ km)
Ceiling: at least 12,000 feet AGL
Clouds: sky clear below 12,000 feet AGL
Weather: no significant weather observed at this time

METAR text: UHPP 151300Z 34005MPS 9999 NSC M08/M17 Q0984 R34L/CLRD70 NOSIG RMK QFE735/0980
Conditions at: UHPP (PETROPAVLOVSK-KA, RU) observed 1300 UTC 15 February 2019
Temperature: -8.0°C (18°F)
Dewpoint: -17.0°C ( 1°F) [RH = 48%]
Pressure (altimeter): 29.06 inches Hg (984.0 mb)
Winds: from the NNW (340 degrees) at 12 MPH (10 knots; 5.1 m/s)
Visibility: 6 or more miles (10+ km)
Ceiling: at least 12,000 feet AGL
Clouds: sky clear below 12,000 feet AGL
Weather: no significant weather observed at this time

METAR text: UHPP 151200Z 32007MPS 9999 NSC M07/M17 Q0984 R34L/CLRD70 NOSIG RMK QFE734/0979
Conditions at: UHPP (PETROPAVLOVSK-KA, RU) observed 1200 UTC 15 February 2019
Temperature: -7.0°C (19°F)
Dewpoint: -17.0°C ( 1°F) [RH = 45%]
Pressure (altimeter): 29.06 inches Hg (984.0 mb)
Winds: from the NW (320 degrees) at 16 MPH (14 knots; 7.2 m/s)
Visibility: 6 or more miles (10+ km)
Ceiling: at least 12,000 feet AGL
Clouds: sky clear below 12,000 feet AGL
Weather: no significant weather observed at this time

METAR text: UHPP 151100Z 32006MPS 9999 NSC M07/M17 Q0984 R34L/CLRD70 NOSIG RMK QFE734/0979
Conditions at: UHPP (PETROPAVLOVSK-KA, RU) observed 1100 UTC 15 February 2019
Temperature: -7.0°C (19°F)
Dewpoint: -17.0°C ( 1°F) [RH = 45%]
Pressure (altimeter): 29.06 inches Hg (984.0 mb)
Winds: from the NW (320 degrees) at 14 MPH (12 knots; 6.2 m/s)
Visibility: 6 or more miles (10+ km)
Ceiling: at least 12,000 feet AGL
Clouds: sky clear below 12,000 feet AGL
Weather: no significant weather observed at this time

METAR text: UHPP 151030Z 33006MPS 9999 NSC M08/M16 Q0983 R34L/CLRD70 NOSIG RMK QFE734/0979
Conditions at: UHPP (PETROPAVLOVSK-KA, RU) observed 1030 UTC 15 February 2019
Temperature: -8.0°C (18°F)
Dewpoint: -16.0°C ( 3°F) [RH = 53%]
Pressure (altimeter): 29.03 inches Hg (983.0 mb)
Winds: from the NNW (330 degrees) at 14 MPH (12 knots; 6.2 m/s)
Visibility: 6 or more miles (10+ km)
Ceiling: at least 12,000 feet AGL
Clouds: sky clear below 12,000 feet AGL
Weather: no significant weather observed at this time

METAR text: UHPP 151000Z 33007MPS 9999 NSC M08/M16 Q0983 R34L/CLRD70 NOSIG RMK QFE734/0979
Conditions at: UHPP (PETROPAVLOVSK-KA, RU) observed 1000 UTC 15 February 2019
Temperature: -8.0°C (18°F)
Dewpoint: -16.0°C ( 3°F) [RH = 53%]
Pressure (altimeter): 29.03 inches Hg (983.0 mb)
Winds: from the NNW (330 degrees) at 16 MPH (14 knots; 7.2 m/s)
Visibility: 6 or more miles (10+ km)
Ceiling: at least 12,000 feet AGL
Clouds: sky clear below 12,000 feet AGL
Weather: no significant weather observed at this time

METAR text: UHPP 150930Z 33006MPS 9999 NSC M08/M16 Q0983 R34L/CLRD70 NOSIG RMK QFE734/0979
Conditions at: UHPP (PETROPAVLOVSK-KA, RU) observed 0930 UTC 15 February 2019
Temperature: -8.0°C (18°F)
Dewpoint: -16.0°C ( 3°F) [RH = 53%]
Pressure (altimeter): 29.03 inches Hg (983.0 mb)
Winds: from the NNW (330 degrees) at 14 MPH (12 knots; 6.2 m/s)
Visibility: 6 or more miles (10+ km)
Ceiling: at least 12,000 feet AGL
Clouds: sky clear below 12,000 feet AGL
Weather: no significant weather observed at this time

METAR text: UHPP 150900Z 32005MPS 9999 NSC M08/M16 Q0983 R34L/CLRD70 NOSIG RMK QFE734/0979
Conditions at: UHPP (PETROPAVLOVSK-KA, RU) observed 0900 UTC 15 February 2019
Temperature: -8.0°C (18°F)
Dewpoint: -16.0°C ( 3°F) [RH = 53%]
Pressure (altimeter): 29.03 inches Hg (983.0 mb)
Winds: from the NW (320 degrees) at 12 MPH (10 knots; 5.1 m/s)
Visibility: 6 or more miles (10+ km)
Ceiling: at least 12,000 feet AGL
Clouds: sky clear below 12,000 feet AGL
Weather: no significant weather observed at this time

METAR text: UHPP 150830Z 31004MPS 9999 NSC M08/M16 Q0983 R34L/CLRD70 NOSIG RMK QFE734/0979
Conditions at: UHPP (PETROPAVLOVSK-KA, RU) observed 0830 UTC 15 February 2019
Temperature: -8.0°C (18°F)
Dewpoint: -16.0°C ( 3°F) [RH = 53%]
Pressure (altimeter): 29.03 inches Hg (983.0 mb)
Winds: from the NW (310 degrees) at 9 MPH (8 knots; 4.1 m/s)
Visibility: 6 or more miles (10+ km)
Ceiling: at least 12,000 feet AGL
Clouds: sky clear below 12,000 feet AGL
Weather: no significant weather observed at this time

METAR text: UHPP 150800Z 33004MPS 9999 NSC M08/M16 Q0983 R34L/CLRD70 NOSIG RMK QFE734/0978
Conditions at: UHPP (PETROPAVLOVSK-KA, RU) observed 0800 UTC 15 February 2019
Temperature: -8.0°C (18°F)
Dewpoint: -16.0°C ( 3°F) [RH = 53%]
Pressure (altimeter): 29.03 inches Hg (983.0 mb)
Winds: from the NNW (330 degrees) at 9 MPH (8 knots; 4.1 m/s)
Visibility: 6 or more miles (10+ km)
Ceiling: at least 12,000 feet AGL
Clouds: sky clear below 12,000 feet AGL
Weather: no significant weather observed at this time

METAR text: UHPP 150730Z 33004MPS 9999 NSC M08/M15 Q0983 R34L/CLRD70 NOSIG RMK QFE733/0978
Conditions at: UHPP (PETROPAVLOVSK-KA, RU) observed 0730 UTC 15 February 2019
Temperature: -8.0°C (18°F)
Dewpoint: -15.0°C ( 5°F) [RH = 57%]
Pressure (altimeter): 29.03 inches Hg (983.0 mb)
Winds: from the NNW (330 degrees) at 9 MPH (8 knots; 4.1 m/s)
Visibility: 6 or more miles (10+ km)
Ceiling: at least 12,000 feet AGL
Clouds: sky clear below 12,000 feet AGL
Weather: no significant weather observed at this time

METAR text: UHPP 150700Z 33006MPS 9999 NSC M08/M15 Q0982 R34L/CLRD70 NOSIG RMK QFE733/0978
Conditions at: UHPP (PETROPAVLOVSK-KA, RU) observed 0700 UTC 15 February 2019
Temperature: -8.0°C (18°F)
Dewpoint: -15.0°C ( 5°F) [RH = 57%]
Pressure (altimeter): 29.00 inches Hg (982.0 mb)
Winds: from the NNW (330 degrees) at 14 MPH (12 knots; 6.2 m/s)
Visibility: 6 or more miles (10+ km)
Ceiling: at least 12,000 feet AGL
Clouds: sky clear below 12,000 feet AGL
Weather: no significant weather observed at this time

METAR text: UHPP 150630Z 33005MPS 9999 NSC M07/M15 Q0982 R34L/CLRD70 NOSIG RMK QFE733/0977
Conditions at: UHPP (PETROPAVLOVSK-KA, RU) observed 0630 UTC 15 February 2019
Temperature: -7.0°C (19°F)
Dewpoint: -15.0°C ( 5°F) [RH = 53%]
Pressure (altimeter): 29.00 inches Hg (982.0 mb)
Winds: from the NNW (330 degrees) at 12 MPH (10 knots; 5.1 m/s)
Visibility: 6 or more miles (10+ km)
Ceiling: at least 12,000 feet AGL
Clouds: sky clear below 12,000 feet AGL
Weather: no significant weather observed at this time

METAR text: UHPP 150600Z VRB01MPS 9999 NSC M07/M15 Q0981 R34L/CLRD70 NOSIG RMK QFE732/0977
Conditions at: UHPP (PETROPAVLOVSK-KA, RU) observed 0600 UTC 15 February 2019
Temperature: -7.0°C (19°F)
Dewpoint: -15.0°C ( 5°F) [RH = 53%]
Pressure (altimeter): 28.97 inches Hg (981.0 mb)
Winds: variable direction winds at 2 MPH (2 knots; 1.0 m/s)
Visibility: 6 or more miles (10+ km)
Ceiling: at least 12,000 feet AGL
Clouds: sky clear below 12,000 feet AGL
Weather: no significant weather observed at this time

METAR text: UHPP 150530Z 18003MPS 9999 NSC M07/M14 Q0981 R34L/CLRD70 NOSIG RMK QFE732/0976
Conditions at: UHPP (PETROPAVLOVSK-KA, RU) observed 0530 UTC 15 February 2019
Temperature: -7.0°C (19°F)
Dewpoint: -14.0°C ( 7°F) [RH = 57%]
Pressure (altimeter): 28.97 inches Hg (981.0 mb)
Winds: from the S (180 degrees) at 7 MPH (6 knots; 3.1 m/s)
Visibility: 6 or more miles (10+ km)
Ceiling: at least 12,000 feet AGL
Clouds: sky clear below 12,000 feet AGL
Weather: no significant weather observed at this time

METAR text: UHPP 150500Z 22002MPS 9999 NSC M06/M13 Q0980 R34L/CLRD70 NOSIG RMK QFE732/0976
Conditions at: UHPP (PETROPAVLOVSK-KA, RU) observed 0500 UTC 15 February 2019
Temperature: -6.0°C (21°F)
Dewpoint: -13.0°C ( 9°F) [RH = 58%]
Pressure (altimeter): 28.94 inches Hg (980.0 mb)
Winds: from the SW (220 degrees) at 5 MPH (4 knots; 2.1 m/s)
Visibility: 6 or more miles (10+ km)
Ceiling: at least 12,000 feet AGL
Clouds: sky clear below 12,000 feet AGL
Weather: no significant weather observed at this time

METAR text: UHPP 150430Z 34002MPS 250V020 9999 NSC M06/M13 Q0980 R34L/CLRD70 NOSIG RMK QFE732/0976
Conditions at: UHPP (PETROPAVLOVSK-KA, RU) observed 0430 UTC 15 February 2019
Temperature: -6.0°C (21°F)
Dewpoint: -13.0°C ( 9°F) [RH = 58%]
Pressure (altimeter): 28.94 inches Hg (980.0 mb)
Winds: from the NNW (340 degrees) at 5 MPH (4 knots; 2.1 m/s)
Visibility: 6 or more miles (10+ km)
Ceiling: at least 12,000 feet AGL
Clouds: sky clear below 12,000 feet AGL
Weather: no significant weather observed at this time

METAR text: UHPP 150400Z 36003MPS 9999 NSC M06/M13 Q0980 R34L/CLRD70 NOSIG RMK QFE731/0975
Conditions at: UHPP (PETROPAVLOVSK-KA, RU) observed 0400 UTC 15 February 2019
Temperature: -6.0°C (21°F)
Dewpoint: -13.0°C ( 9°F) [RH = 58%]
Pressure (altimeter): 28.94 inches Hg (980.0 mb)
Winds: from the N (360 degrees) at 7 MPH (6 knots; 3.1 m/s)
Visibility: 6 or more miles (10+ km)
Ceiling: at least 12,000 feet AGL
Clouds: sky clear below 12,000 feet AGL
Weather: no significant weather observed at this time

METAR text: UHPP 150330Z 02004MPS 9999 NSC M05/M14 Q0980 R34L/CLRD70 NOSIG RMK QFE731/0975
Conditions at: UHPP (PETROPAVLOVSK-KA, RU) observed 0330 UTC 15 February 2019
Temperature: -5.0°C (23°F)
Dewpoint: -14.0°C ( 7°F) [RH = 49%]
Pressure (altimeter): 28.94 inches Hg (980.0 mb)
Winds: from the NNE (20 degrees) at 9 MPH (8 knots; 4.1 m/s)
Visibility: 6 or more miles (10+ km)
Ceiling: at least 12,000 feet AGL
Clouds: sky clear below 12,000 feet AGL
Weather: no significant weather observed at this time

METAR text: UHPP 150300Z 34002MPS 9999 NSC M06/M15 Q0980 R34L/CLRD70 NOSIG RMK QFE731/0975
Conditions at: UHPP (PETROPAVLOVSK-KA, RU) observed 0300 UTC 15 February 2019
Temperature: -6.0°C (21°F)
Dewpoint: -15.0°C ( 5°F) [RH = 49%]
Pressure (altimeter): 28.94 inches Hg (980.0 mb)
Winds: from the NNW (340 degrees) at 5 MPH (4 knots; 2.1 m/s)
Visibility: 6 or more miles (10+ km)
Ceiling: at least 12,000 feet AGL
Clouds: sky clear below 12,000 feet AGL
Weather: no significant weather observed at this time

METAR text: UHPP 150230Z VRB01MPS 9999 NSC M05/M15 Q0979 R34L/CLRD70 NOSIG RMK QFE731/0975
Conditions at: UHPP (PETROPAVLOVSK-KA, RU) observed 0230 UTC 15 February 2019
Temperature: -5.0°C (23°F)
Dewpoint: -15.0°C ( 5°F) [RH = 45%]
Pressure (altimeter): 28.91 inches Hg (979.0 mb)
Winds: variable direction winds at 2 MPH (2 knots; 1.0 m/s)
Visibility: 6 or more miles (10+ km)
Ceiling: at least 12,000 feet AGL
Clouds: sky clear below 12,000 feet AGL
Weather: no significant weather observed at this time

METAR text: UHPP 150200Z VRB01MPS 9999 NSC M06/M15 Q0979 R34L/CLRD70 NOSIG RMK QFE731/0975
Conditions at: UHPP (PETROPAVLOVSK-KA, RU) observed 0200 UTC 15 February 2019
Temperature: -6.0°C (21°F)
Dewpoint: -15.0°C ( 5°F) [RH = 49%]
Pressure (altimeter): 28.91 inches Hg (979.0 mb)
Winds: variable direction winds at 2 MPH (2 knots; 1.0 m/s)
Visibility: 6 or more miles (10+ km)
Ceiling: at least 12,000 feet AGL
Clouds: sky clear below 12,000 feet AGL
Weather: no significant weather observed at this time

METAR text: UHPP 150130Z 33002MPS 9999 NSC M07/M14 Q0980 R34L/CLRD70 NOSIG RMK QFE731/0975
Conditions at: UHPP (PETROPAVLOVSK-KA, RU) observed 0130 UTC 15 February 2019
Temperature: -7.0°C (19°F)
Dewpoint: -14.0°C ( 7°F) [RH = 57%]
Pressure (altimeter): 28.94 inches Hg (980.0 mb)
Winds: from the NNW (330 degrees) at 5 MPH (4 knots; 2.1 m/s)
Visibility: 6 or more miles (10+ km)
Ceiling: at least 12,000 feet AGL
Clouds: sky clear below 12,000 feet AGL
Weather: no significant weather observed at this time

METAR text: UHPP 150100Z VRB01MPS 9999 NSC M07/M16 Q0980 R34L/CLRD70 NOSIG RMK QFE731/0975
Conditions at: UHPP (PETROPAVLOVSK-KA, RU) observed 0100 UTC 15 February 2019
Temperature: -7.0°C (19°F)
Dewpoint: -16.0°C ( 3°F) [RH = 49%]
Pressure (altimeter): 28.94 inches Hg (980.0 mb)
Winds: variable direction winds at 2 MPH (2 knots; 1.0 m/s)
Visibility: 6 or more miles (10+ km)
Ceiling: at least 12,000 feet AGL
Clouds: sky clear below 12,000 feet AGL
Weather: no significant weather observed at this time

METAR text: UHPP 150030Z VRB01MPS 9999 NSC M07/M16 Q0980 R34L/CLRD70 NOSIG RMK QFE731/0975
Conditions at: UHPP (PETROPAVLOVSK-KA, RU) observed 0030 UTC 15 February 2019
Temperature: -7.0°C (19°F)
Dewpoint: -16.0°C ( 3°F) [RH = 49%]
Pressure (altimeter): 28.94 inches Hg (980.0 mb)
Winds: variable direction winds at 2 MPH (2 knots; 1.0 m/s)
Visibility: 6 or more miles (10+ km)
Ceiling: at least 12,000 feet AGL
Clouds: sky clear below 12,000 feet AGL
Weather: no significant weather observed at this time

METAR text: UHPP 150000Z 00000MPS 9999 NSC M07/M16 Q0980 R34L/CLRD70 NOSIG RMK QFE731/0975
Conditions at: UHPP (PETROPAVLOVSK-KA, RU) observed 0000 UTC 15 February 2019
Temperature: -7.0°C (19°F)
Dewpoint: -16.0°C ( 3°F) [RH = 49%]
Pressure (altimeter): 28.94 inches Hg (980.0 mb)
Winds: calm
Visibility: 6 or more miles (10+ km)
Ceiling: at least 12,000 feet AGL
Clouds: sky clear below 12,000 feet AGL
Weather: no significant weather observed at this time

METAR text: UHPP 142330Z 13002MPS 9999 NSC M09/M17 Q0980 R34L/CLRD70 NOSIG RMK QFE731/0975
Conditions at: UHPP (PETROPAVLOVSK-KA, RU) observed 2330 UTC 14 February 2019
Temperature: -9.0°C (16°F)
Dewpoint: -17.0°C ( 1°F) [RH = 52%]
Pressure (altimeter): 28.94 inches Hg (980.0 mb)
Winds: from the SE (130 degrees) at 5 MPH (4 knots; 2.1 m/s)
Visibility: 6 or more miles (10+ km)
Ceiling: at least 12,000 feet AGL
Clouds: sky clear below 12,000 feet AGL
Weather: no significant weather observed at this time

METAR text: UHPP 142300Z 13002MPS 080V160 9999 NSC M09/M17 Q0980 R34L/CLRD70 NOSIG RMK QFE731/0975
Conditions at: UHPP (PETROPAVLOVSK-KA, RU) observed 2300 UTC 14 February 2019
Temperature: -9.0°C (16°F)
Dewpoint: -17.0°C ( 1°F) [RH = 52%]
Pressure (altimeter): 28.94 inches Hg (980.0 mb)
Winds: from the SE (130 degrees) at 5 MPH (4 knots; 2.1 m/s)
Visibility: 6 or more miles (10+ km)
Ceiling: at least 12,000 feet AGL
Clouds: sky clear below 12,000 feet AGL
Weather: no significant weather observed at this time

METAR text: UHPP 142230Z 13002MPS 110V170 9999 NSC M11/M17 Q0980 R34L/CLRD70 NOSIG RMK QFE731/0975
Conditions at: UHPP (PETROPAVLOVSK-KA, RU) observed 2230 UTC 14 February 2019
Temperature: -11.0°C (12°F)
Dewpoint: -17.0°C ( 1°F) [RH = 61%]
Pressure (altimeter): 28.94 inches Hg (980.0 mb)
Winds: from the SE (130 degrees) at 5 MPH (4 knots; 2.1 m/s)
Visibility: 6 or more miles (10+ km)
Ceiling: at least 12,000 feet AGL
Clouds: sky clear below 12,000 feet AGL
Weather: no significant weather observed at this time

METAR text: UHPP 142200Z 13002MPS 9999 NSC M12/M18 Q0979 R34L/CLRD70 NOSIG RMK QFE731/0975
Conditions at: UHPP (PETROPAVLOVSK-KA, RU) observed 2200 UTC 14 February 2019
Temperature: -12.0°C (10°F)
Dewpoint: -18.0°C (-0°F) [RH = 61%]
Pressure (altimeter): 28.91 inches Hg (979.0 mb)
Winds: from the SE (130 degrees) at 5 MPH (4 knots; 2.1 m/s)
Visibility: 6 or more miles (10+ km)
Ceiling: at least 12,000 feet AGL
Clouds: sky clear below 12,000 feet AGL
Weather: no significant weather observed at this time

METAR text: UHPP 142130Z 08003MPS 9999 NSC M12/M17 Q0979 R34L/CLRD70 NOSIG RMK QFE731/0975
Conditions at: UHPP (PETROPAVLOVSK-KA, RU) observed 2130 UTC 14 February 2019
Temperature: -12.0°C (10°F)
Dewpoint: -17.0°C ( 1°F) [RH = 66%]
Pressure (altimeter): 28.91 inches Hg (979.0 mb)
Winds: from the E (80 degrees) at 7 MPH (6 knots; 3.1 m/s)
Visibility: 6 or more miles (10+ km)
Ceiling: at least 12,000 feet AGL
Clouds: sky clear below 12,000 feet AGL
Weather: no significant weather observed at this time

METAR text: UHPP 142100Z 09002MPS 020V110 9999 NSC M14/M18 Q0979 R34L/CLRD70 NOSIG RMK QFE730/0974
Conditions at: UHPP (PETROPAVLOVSK-KA, RU) observed 2100 UTC 14 February 2019
Temperature: -14.0°C ( 7°F)
Dewpoint: -18.0°C (-0°F) [RH = 72%]
Pressure (altimeter): 28.91 inches Hg (979.0 mb)
Winds: from the E (90 degrees) at 5 MPH (4 knots; 2.1 m/s)
Visibility: 6 or more miles (10+ km)
Ceiling: at least 12,000 feet AGL
Clouds: sky clear below 12,000 feet AGL
Weather: no significant weather observed at this time

METAR text: UHPP 142030Z 12002MPS 080V140 9999 NSC M12/M17 Q0978 R34L/CLRD70 NOSIG RMK QFE730/0974
Conditions at: UHPP (PETROPAVLOVSK-KA, RU) observed 2030 UTC 14 February 2019
Temperature: -12.0°C (10°F)
Dewpoint: -17.0°C ( 1°F) [RH = 66%]
Pressure (altimeter): 28.88 inches Hg (978.0 mb)
Winds: from the ESE (120 degrees) at 5 MPH (4 knots; 2.1 m/s)
Visibility: 6 or more miles (10+ km)
Ceiling: at least 12,000 feet AGL
Clouds: sky clear below 12,000 feet AGL
Weather: no significant weather observed at this time

METAR text: UHPP 142000Z 15002MPS 110V190 9999 NSC M14/M18 Q0978 R34L/CLRD70 NOSIG RMK QFE730/0974
Conditions at: UHPP (PETROPAVLOVSK-KA, RU) observed 2000 UTC 14 February 2019
Temperature: -14.0°C ( 7°F)
Dewpoint: -18.0°C (-0°F) [RH = 72%]
Pressure (altimeter): 28.88 inches Hg (978.0 mb)
Winds: from the SSE (150 degrees) at 5 MPH (4 knots; 2.1 m/s)
Visibility: 6 or more miles (10+ km)
Ceiling: at least 12,000 feet AGL
Clouds: sky clear below 12,000 feet AGL
Weather: no significant weather observed at this time

METAR text: UHPP 141930Z VRB01MPS 9999 NSC M12/M18 Q0978 R34L/CLRD70 NOSIG RMK QFE730/0973
Conditions at: UHPP (PETROPAVLOVSK-KA, RU) observed 1930 UTC 14 February 2019
Temperature: -12.0°C (10°F)
Dewpoint: -18.0°C (-0°F) [RH = 61%]
Pressure (altimeter): 28.88 inches Hg (978.0 mb)
Winds: variable direction winds at 2 MPH (2 knots; 1.0 m/s)
Visibility: 6 or more miles (10+ km)
Ceiling: at least 12,000 feet AGL
Clouds: sky clear below 12,000 feet AGL
Weather: no significant weather observed at this time

METAR text: UHPP 141900Z 14002MPS 9999 NSC M11/M16 Q0978 R34L/CLRD70 NOSIG RMK QFE730/0973
Conditions at: UHPP (PETROPAVLOVSK-KA, RU) observed 1900 UTC 14 February 2019
Temperature: -11.0°C (12°F)
Dewpoint: -16.0°C ( 3°F) [RH = 67%]
Pressure (altimeter): 28.88 inches Hg (978.0 mb)
Winds: from the SE (140 degrees) at 5 MPH (4 knots; 2.1 m/s)
Visibility: 6 or more miles (10+ km)
Ceiling: at least 12,000 feet AGL
Clouds: sky clear below 12,000 feet AGL
Weather: no significant weather observed at this time

Forecast for: UHPP (PETROPAVLOVSK-KA, RU)
Text: TAF UHPP 160518Z 1606/1712 30005G15MPS 9999 BKN030CB
Forecast period: 0600 to 0800 UTC 16 February 2019
Forecast type: FROM: standard forecast or significant change
Winds: from the WNW (300 degrees) at 12 MPH (10 knots; 5.1 m/s)
gusting to 33 MPH (29 knots; 14.9 m/s)
Visibility: 6 or more miles 10+ km)
Ceiling: 3000 feet AGL
Clouds: broken clouds at 3000 feet AGL
Weather: no significant weather forecast for this period
Text: FM160800 35003G12MPS 9999 NSC
Forecast period: 0800 UTC 16 February 2019 to 1200 UTC 17 February 2019
Forecast type: FROM: standard forecast or significant change
Winds: from the N (350 degrees) at 7 MPH (6 knots; 3.1 m/s)
gusting to 26 MPH (23 knots; 11.8 m/s)
Visibility: 6 or more miles 10+ km)
Ceiling: unknown
Clouds: missing
Weather: no significant weather forecast for this period
Text: TEMPO 1700/1709 30003G12MPS
Forecast period: 0000 to 0900 UTC 17 February 2019
Forecast type: TEMPORARY: The following changes expected for less than half the time period
Winds: from the WNW (300 degrees) at 7 MPH (6 knots; 3.1 m/s)
gusting to 26 MPH (23 knots; 11.8 m/s)
Visibility: missing
Ceiling: unknown
Clouds: missing
Weather: no significant weather forecast for this period